Terminal Aerodrome Forecast
Issued by NWS Wakefield, VA

Home | Current Version | Previous Version | Text Only | Print | Product List | Glossary On
Versions: 1 2 3 4 5 6 7 8 9 10 11 12 13 14 15 16 17 18 19 20 21 22 23 24
000
FTUS41 KAKQ 031100
TAFSBY
TAF
KSBY 031140Z 0312/0412 06005KT P6SM SCT050 BKN250
     FM031900 14005KT P6SM OVC050
     FM032000 17007KT 4SM -RA SCT012 OVC040
     FM040200 21011KT 4SM BR OVC005=

USA.gov is the U.S. government's official web portal to all federal, state and local government web resources and services.